createdAt,value
2016-10-01T00:00:27.045Z,0
2016-10-01T00:01:27.042Z,0
2016-10-01T00:02:27.019Z,0
2016-10-01T00:03:27.008Z,0
2016-10-01T00:04:27.013Z,0
2016-10-01T00:05:27.005Z,0
2016-10-01T00:06:26.989Z,0
2016-10-01T00:07:26.985Z,0
2016-10-01T00:08:26.982Z,0
2016-10-01T00:09:26.974Z,0
2016-10-01T00:10:26.968Z,0
2016-10-01T00:11:26.955Z,0
2016-10-01T00:12:26.950Z,0
2016-10-01T00:13:26.941Z,0
2016-10-01T00:14:27.237Z,0
2016-10-01T00:15:26.922Z,0
2016-10-01T00:16:26.920Z,0
2016-10-01T00:17:27.630Z,0
2016-10-01T00:18:29.065Z,0
2016-10-01T00:19:26.905Z,0
2016-10-01T00:20:26.887Z,0
2016-10-01T00:21:28.293Z,0
2016-10-01T00:22:26.869Z,0
2016-10-01T00:23:27.091Z,0
2016-10-01T00:24:26.864Z,0
2016-10-01T00:25:26.841Z,0
2016-10-01T00:27:27.943Z,0
2016-10-01T00:28:29.290Z,0
2016-10-01T00:29:28.909Z,0
2016-10-01T00:30:27.639Z,0
2016-10-01T00:31:26.803Z,0
2016-10-01T00:32:26.793Z,0
2016-10-01T00:33:26.786Z,0
2016-10-01T00:34:26.777Z,0
2016-10-01T00:35:26.770Z,0
2016-10-01T00:36:26.761Z,0
2016-10-01T00:37:26.756Z,0
2016-10-01T00:38:26.756Z,0
2016-10-01T00:39:26.738Z,0
2016-10-01T00:40:26.737Z,0
2016-10-01T00:41:26.727Z,0
2016-10-01T00:42:26.720Z,0
2016-10-01T00:43:27.817Z,0
2016-10-01T00:44:42.067Z,0
2016-10-01T00:46:41.602Z,0
2016-10-01T00:47:27.431Z,0
2016-10-01T00:48:26.676Z,0
2016-10-01T00:49:27.262Z,0
2016-10-01T00:50:27.270Z,0
2016-10-01T00:51:26.653Z,0
2016-10-01T00:52:26.641Z,0
2016-10-01T00:53:41.650Z,0
2016-10-01T00:54:27.078Z,0
2016-10-01T00:55:27.552Z,0
2016-10-01T00:56:27.707Z,0
2016-10-01T00:57:26.606Z,0
2016-10-01T00:58:27.048Z,0
2016-10-01T00:59:26.842Z,0
2016-10-01T01:00:26.583Z,0
2016-10-01T01:01:26.572Z,0
2016-10-01T01:02:26.573Z,0
2016-10-01T01:03:26.561Z,0
2016-10-01T01:04:26.557Z,0
2016-10-01T01:05:26.545Z,0
2016-10-01T01:06:26.545Z,0
2016-10-01T01:07:26.529Z,0
2016-10-01T01:08:26.519Z,0
2016-10-01T01:09:26.518Z,0
2016-10-01T01:10:26.510Z,0
2016-10-01T01:11:26.499Z,0
2016-10-01T01:12:26.492Z,0
2016-10-01T01:13:26.486Z,0
2016-10-01T01:14:26.493Z,0
2016-10-01T01:15:26.467Z,0
2016-10-01T01:16:26.462Z,0
2016-10-01T01:17:26.452Z,0
2016-10-01T01:18:26.451Z,0
2016-10-01T01:19:26.434Z,0
2016-10-01T01:20:26.432Z,0
2016-10-01T01:21:26.420Z,0
2016-10-01T01:22:26.411Z,0
2016-10-01T01:23:26.408Z,0
2016-10-01T01:24:26.400Z,0
2016-10-01T01:25:26.395Z,0
2016-10-01T01:26:26.391Z,0
2016-10-01T01:27:26.378Z,0
2016-10-01T01:28:26.673Z,0
2016-10-01T01:29:26.366Z,0
2016-10-01T01:30:26.349Z,0
2016-10-01T01:31:26.348Z,0
2016-10-01T01:32:26.340Z,0
2016-10-01T01:33:26.330Z,0
2016-10-01T01:34:26.318Z,0
2016-10-01T01:35:27.836Z,0
2016-10-01T01:36:29.621Z,0
2016-10-01T01:37:27.435Z,0
2016-10-01T01:38:27.284Z,0
2016-10-01T01:39:26.835Z,0
2016-10-01T01:40:27.465Z,0
2016-10-01T01:41:26.266Z,0
2016-10-01T01:42:26.259Z,0
2016-10-01T01:43:26.247Z,0
2016-10-01T01:44:27.105Z,0
2016-10-01T01:45:28.439Z,0
2016-10-01T01:46:26.571Z,0
2016-10-01T01:47:26.556Z,0
2016-10-01T01:48:26.309Z,0
2016-10-01T01:49:26.969Z,0
2016-10-01T01:50:26.202Z,0
2016-10-01T01:51:26.191Z,0
2016-10-01T01:52:26.290Z,0
2016-10-01T01:53:26.179Z,0
2016-10-01T01:54:26.167Z,0
2016-10-01T01:55:26.151Z,0
2016-10-01T01:56:26.154Z,0
2016-10-01T01:57:26.136Z,0
2016-10-01T01:58:26.434Z,0
2016-10-01T01:59:26.133Z,0
2016-10-01T02:00:26.120Z,0
2016-10-01T02:01:26.110Z,0
2016-10-01T02:02:41.012Z,0
2016-10-01T02:03:26.094Z,0
2016-10-01T02:04:26.338Z,0
2016-10-01T02:05:26.177Z,0
2016-10-01T02:06:26.076Z,0
2016-10-01T02:07:26.058Z,0
2016-10-01T02:08:26.056Z,0
2016-10-01T02:09:26.047Z,0
2016-10-01T02:10:26.039Z,0
2016-10-01T02:11:27.180Z,0
2016-10-01T02:12:41.894Z,0
2016-10-01T02:13:26.711Z,0
2016-10-01T02:14:26.005Z,0
2016-10-01T02:15:27.098Z,0
2016-10-01T02:16:25.990Z,0
2016-10-01T02:17:25.991Z,0
2016-10-01T02:18:25.974Z,0
2016-10-01T02:19:25.961Z,0
2016-10-01T02:20:25.955Z,0
2016-10-01T02:21:25.944Z,0
2016-10-01T02:22:25.950Z,0
2016-10-01T02:23:25.937Z,0
2016-10-01T02:24:25.924Z,0
2016-10-01T02:25:25.921Z,0
2016-10-01T02:26:25.909Z,0
2016-10-01T02:27:25.901Z,0
2016-10-01T02:28:25.895Z,0
2016-10-01T02:29:25.882Z,0
2016-10-01T02:30:25.880Z,0
2016-10-01T02:31:25.870Z,0
2016-10-01T02:32:25.862Z,0
2016-10-01T02:33:25.852Z,0
2016-10-01T02:34:25.851Z,0
2016-10-01T02:35:25.848Z,0
2016-10-01T02:36:25.832Z,0
2016-10-01T02:37:25.828Z,0
2016-10-01T02:38:25.822Z,0
2016-10-01T02:39:25.803Z,0
2016-10-01T02:40:25.795Z,0
2016-10-01T02:41:25.796Z,0
2016-10-01T02:42:25.784Z,0
2016-10-01T02:43:25.781Z,0
2016-10-01T02:44:25.771Z,0
2016-10-01T02:45:25.760Z,0
2016-10-01T02:46:25.753Z,0
2016-10-01T02:47:25.763Z,0
2016-10-01T02:48:25.735Z,0
2016-10-01T02:49:25.732Z,0
2016-10-01T02:50:25.729Z,0
2016-10-01T02:51:25.713Z,0
2016-10-01T02:52:25.718Z,0
2016-10-01T02:53:26.742Z,0
2016-10-01T02:54:28.175Z,0
2016-10-01T02:55:28.132Z,0
2016-10-01T02:56:28.067Z,0
2016-10-01T02:57:25.666Z,0
2016-10-01T02:58:26.003Z,0
2016-10-01T02:59:26.238Z,0
2016-10-01T03:00:25.842Z,0
2016-10-01T03:01:25.646Z,0
2016-10-01T03:02:25.647Z,0
2016-10-01T03:03:28.666Z,0
2016-10-01T03:04:26.951Z,0
2016-10-01T03:05:26.888Z,0
2016-10-01T03:06:26.617Z,0
2016-10-01T03:07:25.596Z,0
2016-10-01T03:08:25.598Z,0
2016-10-01T03:09:25.590Z,0
2016-10-01T03:10:25.579Z,0
2016-10-01T03:11:25.586Z,0
2016-10-01T03:12:25.582Z,0
2016-10-01T03:13:25.554Z,0
2016-10-01T03:14:25.557Z,0
2016-10-01T03:15:25.541Z,0
2016-10-01T03:16:25.534Z,0
2016-10-01T03:17:25.521Z,0
2016-10-01T03:18:25.519Z,0
2016-10-01T03:19:25.509Z,0
2016-10-01T03:20:26.515Z,0
2016-10-01T03:21:26.597Z,0
2016-10-01T03:22:27.037Z,0
2016-10-01T03:23:25.781Z,0
2016-10-01T03:24:26.632Z,0
2016-10-01T03:25:25.467Z,0
2016-10-01T03:26:25.456Z,0
2016-10-01T03:27:25.756Z,0
2016-10-01T03:28:25.800Z,0
2016-10-01T03:29:25.897Z,0
2016-10-01T03:31:25.676Z,0
2016-10-01T03:32:40.330Z,0
2016-10-01T03:33:25.414Z,0
2016-10-01T03:34:26.208Z,0
2016-10-01T03:35:25.723Z,0
2016-10-01T03:36:25.393Z,0
2016-10-01T03:37:25.386Z,0
2016-10-01T03:38:25.383Z,0
2016-10-01T03:39:25.373Z,0
2016-10-01T03:40:25.616Z,0
2016-10-01T03:41:25.357Z,0
2016-10-01T03:42:25.353Z,0
2016-10-01T03:43:25.342Z,0
2016-10-01T03:44:25.333Z,0
2016-10-01T03:45:25.328Z,0
2016-10-01T03:46:25.320Z,0
2016-10-01T03:47:25.321Z,0
2016-10-01T03:48:25.307Z,0
2016-10-01T03:49:25.314Z,0
2016-10-01T03:50:25.294Z,0
2016-10-01T03:51:25.290Z,0
2016-10-01T03:52:25.280Z,0
2016-10-01T03:53:25.270Z,0
2016-10-01T03:54:25.270Z,0
2016-10-01T03:55:25.265Z,0
2016-10-01T03:56:25.256Z,0
2016-10-01T03:57:25.247Z,0
2016-10-01T03:58:25.242Z,0
2016-10-01T03:59:25.233Z,0
2016-10-01T04:00:25.477Z,0
2016-10-01T04:01:25.216Z,0
2016-10-01T04:02:25.219Z,0
2016-10-01T04:03:25.202Z,0
2016-10-01T04:04:25.199Z,0
2016-10-01T04:05:25.198Z,0
2016-10-01T04:06:25.186Z,0
2016-10-01T04:07:25.175Z,0
2016-10-01T04:08:25.170Z,0
2016-10-01T04:09:25.168Z,0
2016-10-01T04:10:25.524Z,0
2016-10-01T04:12:28.185Z,0
2016-10-01T04:13:28.003Z,0
2016-10-01T04:14:25.679Z,0
2016-10-01T04:15:25.127Z,0
2016-10-01T04:16:25.758Z,0
2016-10-01T04:17:26.050Z,0
2016-10-01T04:18:25.595Z,0
2016-10-01T04:19:25.093Z,0
2016-10-01T04:20:25.131Z,0
2016-10-01T04:21:26.617Z,0
2016-10-01T04:22:26.459Z,0
2016-10-01T04:23:26.493Z,0
2016-10-01T04:24:26.242Z,0
2016-10-01T04:25:25.054Z,0
2016-10-01T04:26:25.205Z,0
2016-10-01T04:27:25.046Z,0
2016-10-01T04:28:25.036Z,0
2016-10-01T04:29:25.029Z,0
2016-10-01T04:30:25.030Z,0
2016-10-01T04:31:25.015Z,0
2016-10-01T04:32:25.012Z,0
2016-10-01T04:33:25.000Z,0
2016-10-01T04:34:24.996Z,0
2016-10-01T04:35:24.986Z,4
2016-10-01T04:36:24.984Z,4
2016-10-01T04:37:24.975Z,4
2016-10-01T04:38:40.382Z,4
2016-10-01T04:39:26.766Z,4
2016-10-01T04:40:25.209Z,4
2016-10-01T04:41:25.112Z,4
2016-10-01T04:42:24.941Z,8
2016-10-01T04:43:25.081Z,8
2016-10-01T04:44:25.280Z,12
2016-10-01T04:45:24.922Z,12
2016-10-01T04:46:24.915Z,16
2016-10-01T04:47:39.876Z,20
2016-10-01T04:49:24.893Z,24
2016-10-01T04:50:39.803Z,28
2016-10-01T04:51:40.194Z,32
2016-10-01T04:52:24.880Z,36
2016-10-01T04:53:24.860Z,36
2016-10-01T04:54:24.863Z,40
2016-10-01T04:55:24.853Z,44
2016-10-01T04:56:25.095Z,48
2016-10-01T04:57:24.835Z,52
2016-10-01T04:58:24.832Z,60
2016-10-01T04:59:24.828Z,64
2016-10-01T05:00:24.818Z,72
2016-10-01T05:01:25.061Z,84
2016-10-01T05:02:24.806Z,88
2016-10-01T05:03:24.792Z,100
2016-10-01T05:04:24.788Z,104
2016-10-01T05:05:25.102Z,116
2016-10-01T05:06:25.119Z,128
2016-10-01T05:07:24.765Z,136
2016-10-01T05:08:24.761Z,144
2016-10-01T05:09:24.754Z,156
2016-10-01T05:10:24.755Z,160
2016-10-01T05:11:24.750Z,168
2016-10-01T05:12:24.734Z,176
2016-10-01T05:13:24.726Z,188
2016-10-01T05:14:24.724Z,200
2016-10-01T05:15:24.720Z,212
2016-10-01T05:16:24.701Z,224
2016-10-01T05:17:24.700Z,232
2016-10-01T05:18:24.693Z,240
2016-10-01T05:19:24.684Z,256
2016-10-01T05:20:24.680Z,272
2016-10-01T05:21:24.666Z,292
2016-10-01T05:22:24.960Z,328
2016-10-01T05:23:24.651Z,360
2016-10-01T05:24:24.648Z,388
2016-10-01T05:25:24.648Z,400
2016-10-01T05:26:24.651Z,412
2016-10-01T05:27:24.642Z,424
2016-10-01T05:28:24.626Z,432
2016-10-01T05:30:26.130Z,436
2016-10-01T05:31:26.073Z,444
2016-10-01T05:32:25.939Z,464
2016-10-01T05:33:24.753Z,496
2016-10-01T05:34:24.585Z,540
2016-10-01T05:35:24.576Z,576
2016-10-01T05:36:24.564Z,600
2016-10-01T05:37:24.566Z,628
2016-10-01T05:38:25.822Z,652
2016-10-01T05:40:27.347Z,748
2016-10-01T05:41:25.121Z,804
2016-10-01T05:42:24.537Z,884
2016-10-01T05:43:25.378Z,988
2016-10-01T05:44:24.516Z,1044
2016-10-01T05:45:24.514Z,1108
2016-10-01T05:46:24.635Z,1168
2016-10-01T05:47:24.498Z,1196
2016-10-01T05:48:24.490Z,1256
2016-10-01T05:49:24.485Z,1316
2016-10-01T05:50:24.490Z,1384
2016-10-01T05:51:24.468Z,1452
2016-10-01T05:52:24.460Z,1456
2016-10-01T05:53:24.454Z,1576
2016-10-01T05:54:24.450Z,1772
2016-10-01T05:55:24.440Z,1952
2016-10-01T05:57:55.063Z,2568
2016-10-01T05:58:25.386Z,2664
2016-10-01T05:59:39.381Z,2888
2016-10-01T06:00:24.465Z,2876
2016-10-01T06:01:24.651Z,2884
2016-10-01T06:02:24.396Z,2908
2016-10-01T06:03:24.390Z,2960
2016-10-01T06:04:24.382Z,2912
2016-10-01T06:05:24.880Z,2796
2016-10-01T06:06:24.530Z,2716
2016-10-01T06:07:24.518Z,2672
2016-10-01T06:08:24.809Z,2616
2016-10-01T06:09:24.349Z,2448
2016-10-01T06:10:24.747Z,2324
2016-10-01T06:11:24.849Z,2356
2016-10-01T06:12:24.505Z,2524
2016-10-01T06:13:24.334Z,2816
2016-10-01T06:14:24.346Z,3032
2016-10-01T06:15:24.314Z,3216
2016-10-01T06:16:24.419Z,3436
2016-10-01T06:17:24.330Z,3580
2016-10-01T06:18:24.301Z,3692
2016-10-01T06:19:24.292Z,3644
2016-10-01T06:20:24.282Z,3436
2016-10-01T06:21:24.283Z,3180
2016-10-01T06:22:24.268Z,2996
2016-10-01T06:23:24.275Z,2852
2016-10-01T06:24:24.270Z,2784
2016-10-01T06:25:24.254Z,2888
2016-10-01T06:26:24.247Z,3216
2016-10-01T06:27:24.254Z,3552
2016-10-01T06:28:24.246Z,3328
2016-10-01T06:29:24.236Z,2920
2016-10-01T06:30:24.226Z,2704
2016-10-01T06:31:24.228Z,2760
2016-10-01T06:32:24.222Z,2848
2016-10-01T06:33:24.204Z,2912
2016-10-01T06:34:24.212Z,2908
2016-10-01T06:35:24.195Z,2980
2016-10-01T06:36:24.194Z,3240
2016-10-01T06:37:24.488Z,3652
2016-10-01T06:38:24.182Z,3980
2016-10-01T06:39:24.173Z,4228
2016-10-01T06:40:24.158Z,4460
2016-10-01T06:41:24.167Z,4752
2016-10-01T06:42:24.161Z,4840
2016-10-01T06:43:24.152Z,4880
2016-10-01T06:44:24.145Z,4912
2016-10-01T06:45:24.138Z,5132
2016-10-01T06:46:24.137Z,5464
2016-10-01T06:47:24.125Z,5736
2016-10-01T06:48:24.934Z,5816
2016-10-01T06:49:26.403Z,5900
2016-10-01T06:50:26.295Z,6048
2016-10-01T06:51:25.121Z,6272
2016-10-01T06:52:24.113Z,6540
2016-10-01T06:53:24.406Z,7032
2016-10-01T06:54:24.326Z,7592
2016-10-01T06:55:24.085Z,8132
2016-10-01T06:57:25.656Z,9260
2016-10-01T06:58:25.898Z,9892
2016-10-01T06:59:25.847Z,10284
2016-10-01T07:00:24.675Z,10120
2016-10-01T07:01:24.048Z,9904
2016-10-01T07:02:24.056Z,9880
2016-10-01T07:03:24.046Z,9632
2016-10-01T07:04:24.041Z,9392
2016-10-01T07:05:24.039Z,9408
2016-10-01T07:06:24.032Z,9536
2016-10-01T07:07:24.025Z,9788
2016-10-01T07:08:24.015Z,9980
2016-10-01T07:09:24.018Z,10068
2016-10-01T07:10:24.008Z,10004
2016-10-01T07:11:24.005Z,9948
2016-10-01T07:12:24.004Z,9780
2016-10-01T07:13:23.997Z,9564
2016-10-01T07:14:23.992Z,9404
2016-10-01T07:15:54.321Z,9664
2016-10-01T07:16:24.044Z,9768
2016-10-01T07:17:24.684Z,10000
2016-10-01T07:18:23.982Z,10640
2016-10-01T07:19:24.677Z,11292
2016-10-01T07:20:23.966Z,11864
2016-10-01T07:21:23.967Z,12464
2016-10-01T07:22:23.964Z,12820
2016-10-01T07:23:25.912Z,12712
2016-10-01T07:26:23.992Z,10808
2016-10-01T07:27:23.941Z,10192
2016-10-01T07:28:24.436Z,9620
2016-10-01T07:29:23.940Z,9020
2016-10-01T07:30:23.934Z,8548
2016-10-01T07:31:23.928Z,8256
2016-10-01T07:32:23.916Z,8108
2016-10-01T07:33:23.919Z,7940
2016-10-01T07:34:23.913Z,7724
2016-10-01T07:35:23.910Z,7656
2016-10-01T07:36:23.919Z,7740
2016-10-01T07:37:23.904Z,7632
2016-10-01T07:38:23.902Z,7436
2016-10-01T07:39:23.891Z,7436
2016-10-01T07:40:23.895Z,7724
2016-10-01T07:41:23.890Z,8320
2016-10-01T07:42:23.888Z,8836
2016-10-01T07:43:23.886Z,8764
2016-10-01T07:44:23.872Z,8380
2016-10-01T07:45:23.875Z,8028
2016-10-01T07:46:23.886Z,7684
2016-10-01T07:47:23.862Z,7356
2016-10-01T07:48:23.864Z,7120
2016-10-01T07:49:24.162Z,6856
2016-10-01T07:50:24.154Z,6612
2016-10-01T07:51:23.852Z,6524
2016-10-01T07:52:23.854Z,6460
2016-10-01T07:53:23.842Z,6328
2016-10-01T07:54:23.840Z,6168
2016-10-01T07:55:23.844Z,6072
2016-10-01T07:56:23.839Z,6016
2016-10-01T07:57:23.832Z,5952
2016-10-01T07:58:23.828Z,5972
2016-10-01T07:59:23.824Z,5968
2016-10-01T08:00:23.818Z,5816
2016-10-01T08:01:23.811Z,5640
2016-10-01T08:02:23.820Z,5528
2016-10-01T08:03:23.806Z,5488
2016-10-01T08:04:23.806Z,5564
2016-10-01T08:05:23.805Z,5648
2016-10-01T08:06:25.443Z,5724
2016-10-01T08:07:23.792Z,5852
2016-10-01T08:08:23.941Z,6020
2016-10-01T08:09:23.845Z,6112
2016-10-01T08:10:24.682Z,6012
2016-10-01T08:11:23.779Z,5812
2016-10-01T08:12:23.773Z,5608
2016-10-01T08:13:23.775Z,5452
2016-10-01T08:14:23.765Z,5308
2016-10-01T08:15:24.991Z,5208
2016-10-01T08:16:26.783Z,5140
2016-10-01T08:17:23.757Z,5128
2016-10-01T08:18:25.671Z,5268
2016-10-01T08:19:24.584Z,5616
2016-10-01T08:20:23.749Z,6080
2016-10-01T08:21:23.736Z,6600
2016-10-01T08:22:23.736Z,7068
2016-10-01T08:23:23.730Z,7552
2016-10-01T08:24:23.728Z,8136
2016-10-01T08:25:23.722Z,8620
2016-10-01T08:26:23.719Z,9028
2016-10-01T08:27:23.722Z,9424
2016-10-01T08:28:23.713Z,9700
2016-10-01T08:29:24.016Z,9948
2016-10-01T08:30:23.698Z,9656
2016-10-01T08:31:23.697Z,9176
2016-10-01T08:32:38.759Z,8336
2016-10-01T08:33:24.701Z,7656
2016-10-01T08:35:23.685Z,6520
2016-10-01T08:36:23.697Z,6664
2016-10-01T08:37:24.175Z,7092
2016-10-01T08:38:23.696Z,7916
2016-10-01T08:39:23.675Z,8728
2016-10-01T08:40:23.670Z,9192
2016-10-01T08:41:25.522Z,9492
2016-10-01T08:43:23.670Z,9168
2016-10-01T08:44:23.832Z,8564
2016-10-01T08:45:23.651Z,7564
2016-10-01T08:46:24.201Z,6696
2016-10-01T08:47:23.639Z,6332
2016-10-01T08:48:23.629Z,5996
2016-10-01T08:49:23.635Z,5828
2016-10-01T08:50:23.625Z,5504
2016-10-01T08:51:23.645Z,5300
2016-10-01T08:52:23.633Z,5120
2016-10-01T08:53:23.614Z,4996
2016-10-01T08:54:23.613Z,4972
2016-10-01T08:55:23.608Z,4820
2016-10-01T08:56:23.604Z,4632
2016-10-01T08:57:23.610Z,4492
2016-10-01T08:58:23.611Z,4656
2016-10-01T08:59:23.595Z,4804
2016-10-01T09:00:23.588Z,4932
2016-10-01T09:01:23.584Z,5276
2016-10-01T09:02:23.602Z,5352
2016-10-01T09:03:23.586Z,5384
2016-10-01T09:04:23.569Z,5332
2016-10-01T09:05:23.574Z,5136
2016-10-01T09:06:23.567Z,5004
2016-10-01T09:07:23.579Z,4796
2016-10-01T09:08:23.554Z,4588
2016-10-01T09:09:23.856Z,4372
2016-10-01T09:10:23.543Z,4284
2016-10-01T09:11:23.545Z,4396
2016-10-01T09:12:23.536Z,4644
2016-10-01T09:13:23.536Z,4856
2016-10-01T09:14:23.845Z,5116
2016-10-01T09:15:23.533Z,5264
2016-10-01T09:16:23.527Z,5276
2016-10-01T09:17:23.520Z,5188
2016-10-01T09:18:23.514Z,4968
2016-10-01T09:19:23.511Z,4548
2016-10-01T09:20:23.518Z,4076
2016-10-01T09:21:23.505Z,3812
2016-10-01T09:22:23.498Z,3720
2016-10-01T09:23:23.496Z,3688
2016-10-01T09:24:26.660Z,3744
2016-10-01T09:25:25.147Z,3920
2016-10-01T09:26:25.502Z,4084
2016-10-01T09:27:25.409Z,4208
2016-10-01T09:28:24.176Z,4264
2016-10-01T09:29:23.462Z,4196
2016-10-01T09:30:23.461Z,4112
2016-10-01T09:31:23.457Z,4160
2016-10-01T09:32:23.453Z,4180
2016-10-01T09:33:26.640Z,4100
2016-10-01T09:34:24.920Z,4004
2016-10-01T09:35:25.158Z,3916
2016-10-01T09:36:25.241Z,4116
2016-10-01T09:37:24.060Z,4308
2016-10-01T09:38:23.736Z,4644
2016-10-01T09:39:23.421Z,4648
2016-10-01T09:40:23.424Z,4880
2016-10-01T09:41:23.431Z,5144
2016-10-01T09:42:23.405Z,5136
2016-10-01T09:43:23.405Z,4852
2016-10-01T09:44:23.403Z,5124
2016-10-01T09:45:23.401Z,5536
2016-10-01T09:46:23.397Z,5852
2016-10-01T09:47:23.384Z,6168
2016-10-01T09:48:23.386Z,6648
2016-10-01T09:49:23.378Z,6712
2016-10-01T09:52:25.264Z,7040
2016-10-01T09:53:38.573Z,7432
2016-10-01T09:54:39.027Z,6908
2016-10-01T09:55:23.600Z,6596
2016-10-01T09:56:23.360Z,6452
2016-10-01T09:57:23.743Z,6048
2016-10-01T09:58:23.341Z,5772
2016-10-01T09:59:24.279Z,5516
2016-10-01T10:00:23.540Z,6140
2016-10-01T10:01:38.836Z,6900
2016-10-01T10:02:23.570Z,7112
2016-10-01T10:03:23.309Z,7080
2016-10-01T10:04:23.566Z,6732
2016-10-01T10:05:23.299Z,6324
2016-10-01T10:06:23.298Z,5992
2016-10-01T10:07:23.542Z,6424
2016-10-01T10:08:23.286Z,6980
2016-10-01T10:09:23.280Z,8100
2016-10-01T10:10:23.289Z,8472
2016-10-01T10:11:23.283Z,8392
2016-10-01T10:12:23.622Z,8092
2016-10-01T10:13:23.268Z,7812
2016-10-01T10:14:23.256Z,7848
2016-10-01T10:15:23.262Z,8008
2016-10-01T10:16:23.252Z,8128
2016-10-01T10:17:23.495Z,8580
2016-10-01T10:18:23.250Z,9188
2016-10-01T10:19:23.238Z,9696
2016-10-01T10:20:23.238Z,9128
2016-10-01T10:21:23.234Z,7648
2016-10-01T10:22:23.476Z,7100
2016-10-01T10:23:23.224Z,6992
2016-10-01T10:24:23.214Z,6980
2016-10-01T10:25:23.215Z,7156
2016-10-01T10:26:23.216Z,7284
2016-10-01T10:27:23.203Z,6968
2016-10-01T10:28:23.204Z,6540
2016-10-01T10:29:23.194Z,6176
2016-10-01T10:30:23.190Z,5844
2016-10-01T10:31:23.191Z,5636
2016-10-01T10:32:23.191Z,5988
2016-10-01T10:33:23.182Z,6820
2016-10-01T10:34:23.174Z,7200
2016-10-01T10:35:23.170Z,7200
2016-10-01T10:36:23.171Z,7660
2016-10-01T10:37:23.164Z,8120
2016-10-01T10:38:23.166Z,8936
2016-10-01T10:39:23.156Z,9888
2016-10-01T10:40:23.156Z,10888
2016-10-01T10:41:23.153Z,11956
2016-10-01T10:43:24.429Z,12340
2016-10-01T10:44:24.783Z,11812
2016-10-01T10:45:23.877Z,11984
2016-10-01T10:46:23.121Z,12496
2016-10-01T10:47:23.726Z,13164
2016-10-01T10:48:23.114Z,13396
2016-10-01T10:49:23.303Z,13700
2016-10-01T10:50:23.109Z,13964
2016-10-01T10:52:24.449Z,14664
2016-10-01T10:53:24.832Z,14780
2016-10-01T10:54:24.021Z,14856
2016-10-01T10:55:23.120Z,14412
2016-10-01T10:56:23.861Z,13536
2016-10-01T10:57:23.076Z,13132
2016-10-01T10:58:23.075Z,13684
2016-10-01T10:59:23.070Z,13664
2016-10-01T11:00:23.067Z,13048
2016-10-01T11:01:23.062Z,12436
2016-10-01T11:02:23.061Z,11920
2016-10-01T11:03:23.055Z,11368
2016-10-01T11:04:23.062Z,10500
2016-10-01T11:05:23.045Z,9244
2016-10-01T11:06:23.049Z,8364
2016-10-01T11:07:23.040Z,7520
2016-10-01T11:08:23.290Z,7004
2016-10-01T11:09:23.032Z,6776
2016-10-01T11:10:38.091Z,6644
2016-10-01T11:11:24.982Z,6332
2016-10-01T11:12:37.937Z,6136
2016-10-01T11:13:23.085Z,6140
2016-10-01T11:14:23.314Z,6168
2016-10-01T11:15:23.002Z,6308
2016-10-01T11:16:23.003Z,6192
2016-10-01T11:17:24.309Z,5480
2016-10-01T11:18:24.652Z,5000
2016-10-01T11:19:24.547Z,4752
2016-10-01T11:20:38.506Z,4460
2016-10-01T11:21:37.894Z,4152
2016-10-01T11:22:23.580Z,3988
2016-10-01T11:23:23.222Z,4124
2016-10-01T11:24:22.971Z,4480
2016-10-01T11:25:22.967Z,4772
2016-10-01T11:26:22.955Z,4960
2016-10-01T11:27:22.955Z,4872
2016-10-01T11:28:22.947Z,4488
2016-10-01T11:29:22.943Z,4180
2016-10-01T11:30:22.941Z,4344
2016-10-01T11:31:23.241Z,4672
2016-10-01T11:32:22.949Z,4436
2016-10-01T11:33:22.926Z,3876
2016-10-01T11:34:22.924Z,3592
2016-10-01T11:35:22.933Z,3848
2016-10-01T11:36:22.918Z,4560
2016-10-01T11:37:22.910Z,4960
2016-10-01T11:38:22.908Z,4836
2016-10-01T11:39:22.902Z,4996
2016-10-01T11:40:22.902Z,5232
2016-10-01T11:41:22.897Z,5124
2016-10-01T11:42:22.901Z,4860
2016-10-01T11:43:22.881Z,4840
2016-10-01T11:44:22.875Z,4788
2016-10-01T11:45:22.877Z,4752
2016-10-01T11:46:22.872Z,4548
2016-10-01T11:47:22.870Z,4780
2016-10-01T11:48:22.864Z,4756
2016-10-01T11:49:22.870Z,4860
2016-10-01T11:50:22.851Z,4372
2016-10-01T11:51:22.846Z,4124
2016-10-01T11:52:22.863Z,4488
2016-10-01T11:53:22.840Z,3736
2016-10-01T11:54:22.836Z,3512
2016-10-01T11:55:22.836Z,3468
2016-10-01T11:56:22.826Z,3224
2016-10-01T11:57:22.819Z,3108
2016-10-01T11:58:22.814Z,2872
2016-10-01T11:59:22.805Z,3304
2016-10-01T12:00:23.951Z,3944
2016-10-01T12:01:25.935Z,3248
2016-10-01T12:02:23.070Z,2972
2016-10-01T12:03:23.357Z,2664
2016-10-01T12:04:22.796Z,2424
2016-10-01T12:05:23.094Z,2568
2016-10-01T12:06:23.084Z,2488
2016-10-01T12:07:22.771Z,2532
2016-10-01T12:08:22.767Z,2808
2016-10-01T12:09:23.421Z,2972
2016-10-01T12:10:25.550Z,2828
2016-10-01T12:11:22.748Z,3044
2016-10-01T12:12:22.886Z,2604
2016-10-01T12:13:24.010Z,2816
2016-10-01T12:14:22.733Z,2520
2016-10-01T12:15:22.789Z,2348
2016-10-01T12:16:22.732Z,3468
2016-10-01T12:17:22.724Z,2708
2016-10-01T12:18:22.719Z,3032
2016-10-01T12:19:22.715Z,4548
2016-10-01T12:20:22.704Z,3916
2016-10-01T12:21:22.704Z,5024
2016-10-01T12:22:22.705Z,5868
2016-10-01T12:23:22.998Z,6376
2016-10-01T12:24:22.684Z,6616
2016-10-01T12:25:22.687Z,6116
2016-10-01T12:26:38.297Z,6288
2016-10-01T12:29:37.878Z,6384
2016-10-01T12:30:23.613Z,6216
2016-10-01T12:31:22.905Z,6248
2016-10-01T12:32:22.652Z,5816
2016-10-01T12:33:22.641Z,5396
2016-10-01T12:34:22.644Z,5352
2016-10-01T12:35:23.787Z,5364
2016-10-01T12:36:23.580Z,5304
2016-10-01T12:37:37.542Z,5468
2016-10-01T12:38:23.822Z,5016
2016-10-01T12:39:23.926Z,4600
2016-10-01T12:40:22.717Z,4748
2016-10-01T12:41:22.616Z,5060
2016-10-01T12:42:22.599Z,6520
2016-10-01T12:43:22.596Z,8504
2016-10-01T12:44:22.597Z,9600
2016-10-01T12:45:22.586Z,9728
2016-10-01T12:46:22.583Z,9624
2016-10-01T12:47:22.901Z,9216
2016-10-01T12:48:22.579Z,8908
2016-10-01T12:49:22.566Z,8088
2016-10-01T12:50:22.579Z,7980
2016-10-01T12:51:22.560Z,8340
2016-10-01T12:52:22.560Z,9984
2016-10-01T12:53:22.553Z,12148
2016-10-01T12:54:22.545Z,13228
2016-10-01T12:55:22.535Z,12868
2016-10-01T12:56:22.535Z,13388
2016-10-01T12:57:22.535Z,13824
2016-10-01T12:58:22.526Z,14084
2016-10-01T12:59:22.518Z,14428
2016-10-01T13:00:22.524Z,13856
2016-10-01T13:01:22.514Z,13064
2016-10-01T13:02:22.512Z,12016
2016-10-01T13:03:22.508Z,10888
2016-10-01T13:04:22.504Z,10448
2016-10-01T13:05:22.507Z,10728
2016-10-01T13:06:22.496Z,11220
2016-10-01T13:07:22.494Z,11088
2016-10-01T13:08:22.494Z,10356
2016-10-01T13:09:22.491Z,9340
2016-10-01T13:10:22.481Z,8460
2016-10-01T13:11:22.475Z,8108
2016-10-01T13:12:22.784Z,7720
2016-10-01T13:13:22.481Z,7244
2016-10-01T13:14:22.470Z,6980
2016-10-01T13:15:22.472Z,6764
2016-10-01T13:16:22.474Z,6492
2016-10-01T13:17:22.454Z,6360
2016-10-01T13:18:24.731Z,5988
2016-10-01T13:19:23.519Z,5876
2016-10-01T13:20:24.067Z,5908
2016-10-01T13:21:24.339Z,6252
2016-10-01T13:22:23.340Z,6680
2016-10-01T13:23:22.429Z,6908
2016-10-01T13:24:22.425Z,6848
2016-10-01T13:25:22.426Z,6812
2016-10-01T13:26:22.431Z,6272
2016-10-01T13:27:24.291Z,5624
2016-10-01T13:28:23.319Z,5528
2016-10-01T13:29:24.034Z,6244
2016-10-01T13:30:24.368Z,7524
2016-10-01T13:31:23.424Z,8988
2016-10-01T13:32:22.395Z,10184
2016-10-01T13:33:22.389Z,10176
2016-10-01T13:34:22.390Z,9388
2016-10-01T13:35:22.386Z,8620
2016-10-01T13:36:22.380Z,8820
2016-10-01T13:37:22.374Z,9552
2016-10-01T13:38:22.377Z,10284
2016-10-01T13:39:22.375Z,10540
2016-10-01T13:40:22.376Z,10392
2016-10-01T13:41:22.361Z,9688
2016-10-01T13:42:22.375Z,9004
2016-10-01T13:43:22.354Z,8472
2016-10-01T13:46:22.346Z,7292
2016-10-01T13:48:23.193Z,6732
2016-10-01T13:49:22.339Z,6928
2016-10-01T13:50:22.338Z,7024
2016-10-01T13:51:22.325Z,7112
2016-10-01T13:52:22.329Z,7232
2016-10-01T13:53:23.381Z,7524
2016-10-01T13:54:23.227Z,7684
2016-10-01T13:55:23.073Z,7340
2016-10-01T13:56:23.069Z,6688
2016-10-01T13:57:23.053Z,6108
2016-10-01T13:58:22.558Z,5372
2016-10-01T13:59:22.306Z,4700
2016-10-01T14:00:22.306Z,4356
2016-10-01T14:01:22.297Z,4036
2016-10-01T14:02:22.300Z,4028
2016-10-01T14:03:22.301Z,4372
2016-10-01T14:04:22.288Z,5192
2016-10-01T14:05:22.286Z,6332
2016-10-01T14:06:22.272Z,7364
2016-10-01T14:07:22.275Z,7984
2016-10-01T14:08:22.419Z,8372
2016-10-01T14:09:22.273Z,8696